Time;durP1;ratioP1;P1;durP2;ratioP2;P2;SDS_P1;SDS_P2;PMS_P1;PMS_P2;Temp;Humidity;BMP_temperature;BMP_pressure;BME280_temperature;BME280_humidity;BME280_pressure;Samples;Min_cycle;Max_cycle;Signal;HPM_P1;HPM_P2
2022/12/13 00:01:49;;;;;;;25.80;12.73;;;-0.40;99.90;;;;;;5057200;28;20086;-70
2022/12/13 00:04:16;;;;;;;24.55;12.07;;;-0.50;99.90;;;;;;5059049;28;20020;-71
2022/12/13 00:06:41;;;;;;;26.63;11.80;;;-0.50;99.90;;;;;;5055538;28;20028;-70
2022/12/13 00:09:07;;;;;;;25.38;12.18;;;-0.50;99.90;;;;;;5057694;28;20519;-71
2022/12/13 00:11:33;;;;;;;24.88;12.25;;;-0.40;99.90;;;;;;5073306;28;20234;-70
2022/12/13 00:14:00;;;;;;;28.13;13.27;;;-0.50;99.90;;;;;;5079464;28;20032;-71
2022/12/13 00:16:26;;;;;;;29.17;13.63;;;-0.50;99.90;;;;;;5071472;28;20598;-71
2022/12/13 00:18:55;;;;;;;27.05;12.32;;;-0.50;99.90;;;;;;5057738;28;20074;-71
2022/12/13 00:21:23;;;;;;;26.63;12.90;;;-0.50;99.90;;;;;;5052472;28;20082;-71
2022/12/13 00:23:48;;;;;;;23.92;12.32;;;-0.50;99.90;;;;;;5055392;28;20098;-70
2022/12/13 00:26:20;;;;;;;27.05;12.98;;;-0.50;99.90;;;;;;5053323;28;20036;-71
2022/12/13 00:28:48;;;;;;;26.15;13.48;;;-0.50;99.90;;;;;;5056380;28;20024;-71
2022/12/13 00:31:14;;;;;;;24.95;12.40;;;-0.50;99.90;;;;;;5062866;28;20056;-71
2022/12/13 00:33:40;;;;;;;23.08;12.13;;;-0.60;99.90;;;;;;5078469;28;20479;-71
2022/12/13 00:36:07;;;;;;;26.17;12.85;;;-0.60;99.90;;;;;;5060329;28;20028;-70
2022/12/13 00:38:34;;;;;;;27.88;12.45;;;-0.70;99.90;;;;;;5057991;28;20480;-71
2022/12/13 00:41:08;;;;;;;27.98;12.93;;;-0.70;99.90;;;;;;5058875;28;20078;-71
2022/12/13 00:43:33;;;;;;;24.10;12.75;;;-0.70;99.90;;;;;;5058273;28;20317;-71
2022/12/13 00:45:59;;;;;;;25.17;13.02;;;-0.80;99.90;;;;;;5054811;28;20089;-71
2022/12/13 00:48:24;;;;;;;28.08;12.25;;;-0.90;99.90;;;;;;5058164;28;20514;-70
2022/12/13 00:50:50;;;;;;;24.23;11.88;;;-0.90;99.90;;;;;;5055716;28;20128;-71
2022/12/13 00:53:15;;;;;;;25.23;12.50;;;-0.90;99.90;;;;;;5057343;28;20033;-70
2022/12/13 00:55:41;;;;;;;23.45;11.38;;;-0.90;99.90;;;;;;5048042;28;20020;-71
2022/12/13 00:58:07;;;;;;;23.20;11.25;;;-1.00;99.90;;;;;;5057469;28;20025;-70
2022/12/13 01:00:32;;;;;;;24.40;11.98;;;-1.00;99.90;;;;;;5056352;28;20340;-71
2022/12/13 01:02:58;;;;;;;21.75;11.75;;;-1.00;99.90;;;;;;5054752;28;20502;-70
2022/12/13 01:05:23;;;;;;;28.98;13.25;;;-1.00;99.90;;;;;;5054514;28;20063;-71
2022/12/13 01:07:49;;;;;;;26.80;12.80;;;-1.00;99.90;;;;;;5055316;28;20067;-71
2022/12/13 01:10:15;;;;;;;24.17;11.70;;;-1.00;99.90;;;;;;5043972;28;20412;-71
2022/12/13 01:12:40;;;;;;;22.83;11.00;;;-1.10;99.90;;;;;;5036877;28;20029;-70
2022/12/13 01:15:07;;;;;;;25.13;11.20;;;-1.10;99.90;;;;;;5037378;28;20029;-70
2022/12/13 01:17:34;;;;;;;26.45;11.68;;;-1.10;99.90;;;;;;5045517;28;20102;-71
2022/12/13 01:20:00;;;;;;;25.02;12.95;;;-1.10;99.90;;;;;;5056507;28;20085;-71
2022/12/13 01:22:26;;;;;;;27.90;12.55;;;-1.10;99.90;;;;;;5055540;28;20041;-71
2022/12/13 01:24:52;;;;;;;24.50;11.60;;;-1.10;99.90;;;;;;5049766;28;20457;-71
2022/12/13 01:27:18;;;;;;;24.85;10.82;;;-1.10;99.90;;;;;;5053165;28;20028;-71
2022/12/13 01:29:44;;;;;;;24.27;11.73;;;-1.10;99.90;;;;;;5037592;28;20021;-71
2022/12/13 01:32:09;;;;;;;23.00;10.95;;;-1.20;99.90;;;;;;5057715;28;20029;-71
2022/12/13 01:34:35;;;;;;;25.38;10.68;;;-1.20;99.90;;;;;;5040961;28;20705;-71
2022/12/13 01:37:01;;;;;;;25.38;10.82;;;-1.20;99.90;;;;;;5056478;28;20079;-70
2022/12/13 01:39:27;;;;;;;20.70;9.43;;;-1.20;99.90;;;;;;5057043;28;20020;-71
2022/12/13 01:42:02;;;;;;;19.10;9.98;;;-1.20;99.90;;;;;;5052107;28;20047;-71
2022/12/13 01:44:55;;;;;;;21.25;10.20;;;-1.20;99.90;;;;;;5049098;28;20024;-71
2022/12/13 01:47:44;;;;;;;21.27;10.02;;;-1.20;99.90;;;;;;5037190;28;20184;-71
2022/12/13 01:50:22;;;;;;;16.30;8.80;;;-1.20;99.90;;;;;;5046625;28;20113;-70
2022/12/13 01:52:48;;;;;;;21.42;10.25;;;-1.20;99.90;;;;;;5065689;28;20048;-70
2022/12/13 01:55:17;;;;;;;22.48;9.15;;;-1.10;99.90;;;;;;5066884;28;20079;-71
2022/12/13 01:57:44;;;;;;;19.23;10.32;;;-1.20;99.90;;;;;;5057229;28;20024;-71
2022/12/13 02:00:11;;;;;;;19.45;8.95;;;-1.10;99.90;;;;;;5057971;28;20622;-71
2022/12/13 02:02:38;;;;;;;19.70;9.00;;;-1.10;99.90;;;;;;5037028;28;20128;-70
2022/12/13 02:05:24;;;;;;;23.10;9.68;;;-1.20;99.90;;;;;;5066351;28;20612;-71
2022/12/13 02:07:50;;;;;;;21.48;9.65;;;-1.20;99.90;;;;;;5065843;28;20029;-71
2022/12/13 02:10:16;;;;;;;19.67;9.48;;;-1.20;99.90;;;;;;5047429;28;20033;-70
2022/12/13 02:12:42;;;;;;;19.73;8.98;;;-1.20;99.90;;;;;;5036411;28;20025;-71
2022/12/13 02:15:11;;;;;;;18.25;8.60;;;-1.20;99.90;;;;;;5036892;28;20762;-71
2022/12/13 02:17:49;;;;;;;22.13;9.85;;;-1.30;99.90;;;;;;5063929;28;20030;-71
2022/12/13 02:20:46;;;;;;;22.63;8.77;;;-1.30;99.90;;;;;;5056799;28;20102;-71
2022/12/13 02:23:32;;;;;;;19.42;8.88;;;-1.30;99.90;;;;;;5045104;28;20379;-71
2022/12/13 02:26:19;;;;;;;19.67;9.25;;;-1.30;99.90;;;;;;5052981;28;20033;-71
2022/12/13 02:29:02;;;;;;;19.17;9.05;;;-1.30;99.90;;;;;;5057276;28;20043;-71
2022/12/13 02:31:46;;;;;;;20.52;9.10;;;-1.20;99.90;;;;;;5052831;28;20166;-71
2022/12/13 02:34:21;;;;;;;18.08;9.15;;;-1.20;99.90;;;;;;5051770;28;20105;-71
2022/12/13 02:37:05;;;;;;;20.08;8.30;;;-1.30;99.90;;;;;;5052780;28;20365;-71
2022/12/13 02:39:40;;;;;;;15.55;8.32;;;-1.30;99.90;;;;;;5056364;28;20467;-70
2022/12/13 02:42:42;;;;;;;22.25;8.77;;;-1.30;99.90;;;;;;5059865;28;20160;-71
2022/12/13 02:45:15;;;;;;;17.27;8.27;;;-1.30;99.90;;;;;;5035400;28;20037;-71
2022/12/13 02:47:44;;;;;;;20.30;9.23;;;-1.30;99.90;;;;;;5024328;28;20389;-71
2022/12/13 02:50:13;;;;;;;15.05;7.95;;;-1.30;99.90;;;;;;5038059;28;20031;-71
2022/12/13 02:52:41;;;;;;;19.65;7.78;;;-1.40;99.90;;;;;;5047556;28;20047;-71
2022/12/13 02:55:11;;;;;;;15.25;8.05;;;-1.40;99.90;;;;;;5054485;28;20109;-71
2022/12/13 02:57:43;;;;;;;17.25;7.68;;;-1.50;99.90;;;;;;5050150;28;20435;-71
2022/12/13 03:00:14;;;;;;;20.90;8.18;;;-1.50;99.90;;;;;;5053168;28;20028;-71
2022/12/13 03:02:53;;;;;;;16.23;8.15;;;-1.50;99.90;;;;;;5043453;28;20140;-71
2022/12/13 03:08:12;;;;;;;17.42;7.45;;;-1.60;99.90;;;;;;5063930;28;20055;-71
2022/12/13 03:11:05;;;;;;;20.58;8.90;;;-1.60;99.90;;;;;;5058250;28;20040;-70
2022/12/13 03:14:03;;;;;;;19.42;8.18;;;-1.70;99.90;;;;;;5043450;28;20111;-71
2022/12/13 03:16:36;;;;;;;15.95;7.07;;;-1.80;99.90;;;;;;5050489;28;20237;-71
2022/12/13 03:19:06;;;;;;;16.45;8.38;;;-1.80;99.90;;;;;;5056950;28;20441;-71
2022/12/13 03:21:45;;;;;;;18.73;7.95;;;-1.90;99.90;;;;;;5045034;28;20131;-71
2022/12/13 03:24:11;;;;;;;19.65;8.77;;;-1.90;99.90;;;;;;5054576;28;20540;-71
2022/12/13 03:26:38;;;;;;;17.35;7.65;;;-1.90;99.90;;;;;;5050710;28;20510;-71
2022/12/13 03:29:05;;;;;;;17.85;8.20;;;-1.90;99.90;;;;;;5057703;28;20473;-71
2022/12/13 03:31:30;;;;;;;14.95;7.35;;;-1.90;99.90;;;;;;5057504;28;20052;-71
2022/12/13 03:33:56;;;;;;;19.92;9.60;;;-1.90;99.90;;;;;;5058342;28;20064;-71
2022/12/13 03:36:22;;;;;;;17.38;8.23;;;-2.00;99.90;;;;;;5055238;28;20067;-71
2022/12/13 03:38:51;;;;;;;20.05;9.13;;;-2.00;99.90;;;;;;5047007;28;20545;-72
2022/12/13 03:41:19;;;;;;;19.55;8.52;;;-2.00;99.90;;;;;;5051997;28;20534;-71
2022/12/13 03:43:45;;;;;;;15.43;7.30;;;-2.00;99.90;;;;;;5047476;28;20094;-71
2022/12/13 03:46:11;;;;;;;16.30;8.30;;;-2.00;99.90;;;;;;5059044;28;20415;-71
2022/12/13 03:48:37;;;;;;;19.17;8.13;;;-2.10;99.90;;;;;;5056719;28;20163;-71
2022/12/13 03:51:02;;;;;;;17.65;9.02;;;-2.00;99.90;;;;;;5045994;28;20324;-71
2022/12/13 03:53:29;;;;;;;17.50;7.32;;;-2.00;99.90;;;;;;5058296;28;20104;-71
2022/12/13 03:55:54;;;;;;;15.60;7.72;;;-2.00;99.90;;;;;;5038946;28;20037;-71
2022/12/13 03:58:20;;;;;;;16.80;7.72;;;-2.00;99.90;;;;;;5038568;28;20025;-71
2022/12/13 04:00:46;;;;;;;15.73;7.45;;;-2.00;99.90;;;;;;5048913;28;20139;-71
2022/12/13 04:03:12;;;;;;;16.15;7.07;;;-2.00;99.90;;;;;;5036211;28;20553;-71
2022/12/13 04:05:38;;;;;;;15.48;7.80;;;-2.00;99.90;;;;;;5058688;28;20116;-71
2022/12/13 04:08:04;;;;;;;20.20;7.82;;;-2.00;99.90;;;;;;5057931;28;20066;-71
2022/12/13 04:10:30;;;;;;;19.83;7.65;;;-2.00;99.90;;;;;;5058598;28;20032;-71
2022/12/13 04:15:47;;;;;;;17.10;7.18;;;-1.90;99.90;;;;;;5057778;28;20039;-71
2022/12/13 04:18:15;;;;;;;14.88;6.90;;;-1.90;99.90;;;;;;5041427;28;20029;-71
2022/12/13 04:20:41;;;;;;;15.48;7.53;;;-1.90;99.90;;;;;;5034800;28;20048;-71
2022/12/13 04:23:06;;;;;;;14.43;7.22;;;-1.80;99.90;;;;;;5058532;28;20556;-69
2022/12/13 04:25:32;;;;;;;11.80;6.55;;;-1.90;99.90;;;;;;5053562;28;20472;-71
2022/12/13 04:27:57;;;;;;;15.50;8.13;;;-1.90;99.90;;;;;;5039355;28;20036;-71
2022/12/13 04:30:23;;;;;;;13.93;6.38;;;-1.90;99.90;;;;;;5057878;28;20032;-72
2022/12/13 04:32:49;;;;;;;14.35;6.70;;;-1.90;99.90;;;;;;5057690;28;20085;-71
2022/12/13 04:35:14;;;;;;;13.88;6.72;;;-1.90;99.90;;;;;;5045647;28;20028;-70
2022/12/13 04:37:40;;;;;;;18.05;7.03;;;-1.80;99.90;;;;;;5036838;28;20039;-71
2022/12/13 04:40:06;;;;;;;15.90;7.05;;;-1.90;99.90;;;;;;5053052;28;20097;-71
2022/12/13 04:42:32;;;;;;;12.93;6.15;;;-1.90;99.90;;;;;;5055075;28;20032;-71
2022/12/13 04:44:57;;;;;;;12.93;6.10;;;-1.90;99.90;;;;;;5033199;28;20034;-71
2022/12/13 04:47:23;;;;;;;13.25;6.78;;;-1.90;99.90;;;;;;5055809;28;20111;-71
2022/12/13 04:49:49;;;;;;;16.25;6.65;;;-1.90;99.90;;;;;;5050432;28;20036;-71
2022/12/13 04:52:14;;;;;;;16.80;6.70;;;-1.90;99.90;;;;;;5034795;28;20052;-71
2022/12/13 04:54:40;;;;;;;15.57;6.90;;;-1.90;99.90;;;;;;5036150;28;20029;-72
2022/12/13 04:57:09;;;;;;;16.80;5.93;;;-1.80;99.90;;;;;;5054798;28;20034;-71
2022/12/13 04:59:35;;;;;;;10.73;6.00;;;-1.80;99.90;;;;;;5053749;28;20029;-71
2022/12/13 05:02:02;;;;;;;13.32;6.43;;;-1.90;99.90;;;;;;5051476;28;20115;-71
2022/12/13 05:04:27;;;;;;;10.52;5.50;;;-2.00;99.90;;;;;;5045412;28;20033;-71
2022/12/13 05:06:53;;;;;;;11.75;5.55;;;-2.00;99.90;;;;;;5040246;28;20028;-72
2022/12/13 05:09:18;;;;;;;13.25;5.75;;;-2.00;99.90;;;;;;5053662;28;20037;-72
2022/12/13 05:11:44;;;;;;;14.90;5.65;;;-2.00;99.90;;;;;;5053435;28;20119;-71
2022/12/13 05:14:10;;;;;;;12.27;5.70;;;-2.00;99.90;;;;;;5047898;28;20037;-71
2022/12/13 05:16:35;;;;;;;12.77;5.25;;;-2.00;99.90;;;;;;5054284;28;20071;-71
2022/12/13 05:19:01;;;;;;;10.05;6.03;;;-2.00;99.90;;;;;;5036954;28;20032;-71
2022/12/13 05:21:26;;;;;;;14.18;6.30;;;-2.00;99.90;;;;;;5044468;28;20403;-71
2022/12/13 05:23:52;;;;;;;12.88;6.43;;;-2.10;99.90;;;;;;5055753;28;20032;-71
2022/12/13 05:26:18;;;;;;;11.20;5.97;;;-2.00;99.90;;;;;;5053476;28;20037;-71
2022/12/13 05:28:44;;;;;;;18.52;6.60;;;-2.00;99.90;;;;;;5053094;28;20246;-72
2022/12/13 05:31:11;;;;;;;10.73;5.53;;;-2.00;99.90;;;;;;5052513;28;20504;-71
2022/12/13 05:33:37;;;;;;;13.05;6.22;;;-2.00;99.90;;;;;;5054836;28;20492;-71
2022/12/13 05:36:04;;;;;;;13.90;5.90;;;-2.00;99.90;;;;;;5052394;28;20056;-71
2022/12/13 05:38:30;;;;;;;11.93;6.10;;;-2.10;99.90;;;;;;5047856;28;20025;-71
2022/12/13 05:40:57;;;;;;;10.25;5.78;;;-2.00;99.90;;;;;;5041272;28;20396;-70
2022/12/13 05:43:22;;;;;;;12.85;5.80;;;-2.10;99.90;;;;;;5054106;28;20107;-71
2022/12/13 05:45:49;;;;;;;12.25;5.72;;;-2.10;99.90;;;;;;5055912;28;20108;-70
2022/12/13 05:48:15;;;;;;;11.60;6.15;;;-2.20;99.90;;;;;;5057879;28;20115;-71
2022/12/13 05:50:40;;;;;;;12.07;5.97;;;-2.20;99.90;;;;;;5048896;28;20049;-70
2022/12/13 05:53:06;;;;;;;10.55;5.95;;;-2.20;99.90;;;;;;5037269;28;20447;-70
2022/12/13 05:55:32;;;;;;;14.50;5.88;;;-2.20;99.90;;;;;;5037422;28;20401;-71
2022/12/13 05:57:58;;;;;;;13.38;6.15;;;-2.20;99.90;;;;;;5037206;28;20135;-72
2022/12/13 06:00:24;;;;;;;10.52;5.50;;;-2.30;99.90;;;;;;5044230;28;20437;-71
2022/12/13 06:02:50;;;;;;;15.00;6.05;;;-2.30;99.90;;;;;;5053973;28;20032;-70
2022/12/13 06:05:16;;;;;;;11.65;5.63;;;-2.30;99.90;;;;;;5055953;28;20468;-70
2022/12/13 06:07:41;;;;;;;11.20;5.47;;;-2.30;99.90;;;;;;5059860;28;20109;-71
2022/12/13 06:10:08;;;;;;;12.93;5.63;;;-2.30;99.90;;;;;;5061145;28;20058;-71
2022/12/13 06:12:34;;;;;;;14.10;5.88;;;-2.30;99.90;;;;;;5057232;28;20035;-71
2022/12/13 06:15:00;;;;;;;11.02;5.90;;;-2.30;99.90;;;;;;5050000;28;20041;-71
2022/12/13 06:17:32;;;;;;;11.90;5.95;;;-2.30;99.90;;;;;;5058375;28;20024;-71
2022/12/13 06:19:58;;;;;;;10.70;5.45;;;-2.40;99.90;;;;;;5054592;28;20464;-71
2022/12/13 06:22:24;;;;;;;12.32;6.20;;;-2.40;99.90;;;;;;5036792;28;20111;-70
2022/12/13 06:24:50;;;;;;;11.77;6.32;;;-2.40;99.90;;;;;;5051023;28;20103;-70
2022/12/13 06:27:16;;;;;;;8.85;5.35;;;-2.40;99.90;;;;;;5049136;28;20060;-71
2022/12/13 06:29:42;;;;;;;15.65;6.63;;;-2.30;99.90;;;;;;5038168;28;20037;-71
2022/12/13 06:32:07;;;;;;;13.93;5.53;;;-2.40;99.90;;;;;;5056238;28;20044;-70
2022/12/13 06:34:35;;;;;;;11.35;5.95;;;-2.40;99.90;;;;;;5058704;28;20500;-70
2022/12/13 06:37:02;;;;;;;11.80;5.43;;;-2.30;99.90;;;;;;5055264;28;20067;-70
2022/12/13 06:39:29;;;;;;;8.73;5.00;;;-2.40;99.90;;;;;;5038589;28;20078;-71
2022/12/13 06:41:55;;;;;;;12.27;5.85;;;-2.40;99.90;;;;;;5059660;28;20036;-71
2022/12/13 06:44:21;;;;;;;12.32;6.72;;;-2.50;99.90;;;;;;5061429;28;20085;-70
2022/12/13 06:46:46;;;;;;;12.63;6.10;;;-2.50;99.90;;;;;;5060222;28;20032;-70
2022/12/13 06:49:12;;;;;;;10.50;5.78;;;-2.50;99.90;;;;;;5073600;28;20128;-71
2022/12/13 06:51:37;;;;;;;12.77;5.95;;;-2.50;99.90;;;;;;5050351;28;20052;-71
2022/12/13 06:54:03;;;;;;;11.80;5.85;;;-2.60;99.90;;;;;;5057720;28;20055;-71
2022/12/13 06:56:30;;;;;;;12.32;5.85;;;-2.60;99.90;;;;;;5058543;28;20451;-71
2022/12/13 06:58:56;;;;;;;14.02;6.43;;;-2.70;99.90;;;;;;5060359;28;20039;-71
2022/12/13 07:01:21;;;;;;;13.48;6.15;;;-2.60;99.90;;;;;;5067741;28;20036;-71
2022/12/13 07:03:47;;;;;;;14.93;6.70;;;-2.70;99.90;;;;;;5061414;28;20032;-71
2022/12/13 07:06:16;;;;;;;14.20;6.50;;;-2.80;99.90;;;;;;5041940;28;20117;-71
2022/12/13 07:08:46;;;;;;;14.95;7.88;;;-2.80;99.90;;;;;;5057019;28;20032;-71
2022/12/13 07:11:24;;;;;;;13.18;6.20;;;-2.70;99.90;;;;;;5049605;28;20099;-70
2022/12/13 07:13:50;;;;;;;16.98;8.25;;;-2.70;99.90;;;;;;5048710;28;20028;-71
2022/12/13 07:16:16;;;;;;;15.75;6.25;;;-2.80;99.90;;;;;;5053249;28;20095;-70
2022/12/13 07:18:42;;;;;;;10.45;6.57;;;-2.70;99.90;;;;;;5055113;28;20051;-70
2022/12/13 07:21:10;;;;;;;11.40;5.80;;;-2.70;99.90;;;;;;5057032;28;20044;-70
2022/12/13 07:23:37;;;;;;;11.85;6.13;;;-2.70;99.90;;;;;;5055984;28;20062;-70
2022/12/13 07:26:04;;;;;;;11.00;6.05;;;-2.70;99.90;;;;;;5058355;28;20028;-71
2022/12/13 07:28:35;;;;;;;10.00;5.60;;;-2.60;99.90;;;;;;5050528;28;20052;-70
2022/12/13 07:31:02;;;;;;;12.50;6.00;;;-2.60;99.90;;;;;;5057868;28;20028;-71
2022/12/13 07:33:28;;;;;;;14.68;6.15;;;-2.70;99.90;;;;;;5058157;28;20037;-71
2022/12/13 07:36:23;;;;;;;13.50;6.45;;;-2.70;99.90;;;;;;5052548;28;20024;-71
2022/12/13 07:38:56;;;;;;;12.30;7.10;;;-2.60;99.90;;;;;;5037200;28;20032;-71
2022/12/13 07:41:23;;;;;;;13.80;6.40;;;-2.60;99.90;;;;;;5053341;28;20123;-70
2022/12/13 07:43:49;;;;;;;10.27;6.05;;;-2.50;99.90;;;;;;5056312;28;20398;-70
2022/12/13 07:46:15;;;;;;;15.50;6.95;;;-2.50;99.90;;;;;;5030439;28;20028;-70
2022/12/13 07:48:40;;;;;;;12.73;6.30;;;-2.50;99.90;;;;;;5058373;28;20640;-70
2022/12/13 07:51:12;;;;;;;10.75;6.22;;;-2.40;99.90;;;;;;5055825;28;20120;-71
2022/12/13 07:53:38;;;;;;;13.65;6.40;;;-2.50;99.90;;;;;;5049502;28;21722;-70
2022/12/13 07:56:09;;;;;;;14.82;6.85;;;-2.50;99.90;;;;;;5053019;28;20047;-70
2022/12/13 07:58:35;;;;;;;12.98;6.72;;;-2.50;99.90;;;;;;5051004;28;20059;-70
2022/12/13 08:01:03;;;;;;;12.98;6.55;;;-2.50;99.90;;;;;;5048783;28;20564;-71
2022/12/13 08:03:29;;;;;;;15.00;7.25;;;-2.50;99.90;;;;;;5050396;28;20032;-70
2022/12/13 08:06:13;;;;;;;13.20;6.72;;;-2.40;99.90;;;;;;5036149;28;20349;-70
2022/12/13 08:08:39;;;;;;;15.40;7.50;;;-2.40;99.90;;;;;;5046161;28;20394;-70
2022/12/13 08:11:09;;;;;;;16.35;7.75;;;-2.30;99.90;;;;;;5052879;28;20077;-71
2022/12/13 08:13:36;;;;;;;13.05;7.68;;;-2.10;99.90;;;;;;5059459;28;20055;-71
2022/12/13 08:16:05;;;;;;;13.90;7.07;;;-2.10;99.90;;;;;;5056946;28;20067;-71
2022/12/13 08:18:31;;;;;;;16.60;7.22;;;-2.00;99.90;;;;;;5055855;28;20103;-70
2022/12/13 08:21:03;;;;;;;15.32;7.40;;;-1.80;99.90;;;;;;5051736;28;20037;-71
2022/12/13 08:23:32;;;;;;;16.02;7.50;;;-1.70;99.90;;;;;;5055024;28;20020;-71
2022/12/13 08:25:57;;;;;;;17.42;8.30;;;-1.60;99.90;;;;;;5049933;28;20292;-70
2022/12/13 08:28:24;;;;;;;15.88;7.13;;;-1.50;99.90;;;;;;5047322;28;20720;-71
2022/12/13 08:30:50;;;;;;;20.58;7.68;;;-1.40;99.90;;;;;;5045328;28;20506;-71
2022/12/13 08:33:17;;;;;;;15.00;7.15;;;-1.20;99.90;;;;;;5044479;28;20423;-71
2022/12/13 08:35:45;;;;;;;20.83;8.20;;;-1.10;99.90;;;;;;5045517;28;20048;-71
2022/12/13 08:38:10;;;;;;;17.33;7.80;;;-1.00;99.90;;;;;;5045199;28;20020;-71
2022/12/13 08:40:36;;;;;;;17.08;8.02;;;-0.90;99.90;;;;;;5047476;28;20041;-70
2022/12/13 08:43:02;;;;;;;18.40;7.90;;;-0.80;99.90;;;;;;5026073;28;20131;-71
2022/12/13 08:45:30;;;;;;;16.15;8.32;;;-0.70;99.90;;;;;;5053929;28;20411;-71
2022/12/13 08:47:59;;;;;;;15.63;8.13;;;-0.70;99.90;;;;;;5058263;28;20280;-71
2022/12/13 08:50:25;;;;;;;17.55;8.05;;;-0.60;99.90;;;;;;5057889;28;20032;-71
2022/12/13 08:52:51;;;;;;;18.45;8.23;;;-0.50;99.90;;;;;;5056595;28;20032;-71
2022/12/13 08:55:17;;;;;;;14.05;8.70;;;-0.40;99.90;;;;;;5058265;28;20021;-71
2022/12/13 08:57:43;;;;;;;18.98;9.05;;;-0.30;99.90;;;;;;5053704;28;20028;-70
2022/12/13 09:00:12;;;;;;;17.33;8.55;;;-0.20;99.90;;;;;;5054993;28;20869;-71
2022/12/13 09:02:38;;;;;;;15.14;7.98;;;-0.20;99.90;;;;;;4707707;28;10000712;-70
2022/12/13 09:05:06;;;;;;;14.70;8.00;;;0.00;99.90;;;;;;5053750;28;20069;-70
2022/12/13 09:07:31;;;;;;;15.75;8.60;;;0.10;99.90;;;;;;5048997;28;20032;-70
2022/12/13 09:09:57;;;;;;;16.25;8.02;;;0.20;99.90;;;;;;5049498;28;20025;-70
2022/12/13 09:12:22;;;;;;;15.73;8.90;;;0.20;99.90;;;;;;5048260;28;20086;-71
2022/12/13 09:14:48;;;;;;;17.98;9.80;;;0.40;99.90;;;;;;5045373;28;20039;-71
2022/12/13 09:17:15;;;;;;;17.48;7.85;;;0.60;99.90;;;;;;5047880;28;20040;-71
2022/12/13 09:19:40;;;;;;;17.50;8.23;;;0.70;99.90;;;;;;5036371;28;20788;-71
2022/12/13 09:22:06;;;;;;;16.15;8.18;;;1.00;99.90;;;;;;5039280;28;20417;-70
2022/12/13 09:24:32;;;;;;;14.70;8.23;;;1.30;99.90;;;;;;5037179;28;20830;-71
2022/12/13 09:26:57;;;;;;;13.70;7.70;;;1.60;99.90;;;;;;5041475;28;20132;-71
2022/12/13 09:29:24;;;;;;;18.23;10.38;;;1.90;99.80;;;;;;5045319;28;20200;-72
2022/12/13 09:31:49;;;;;;;16.52;8.57;;;2.00;99.70;;;;;;5040299;28;20052;-71
2022/12/13 09:34:15;;;;;;;14.05;7.55;;;2.10;99.60;;;;;;5044065;28;20111;-69
2022/12/13 09:36:41;;;;;;;13.85;7.10;;;2.30;98.40;;;;;;5041922;28;20074;-70
2022/12/13 09:39:07;;;;;;;13.90;7.32;;;2.20;96.80;;;;;;5045282;28;20131;-71
2022/12/13 09:41:34;;;;;;;12.80;7.15;;;2.30;97.60;;;;;;5048361;28;20036;-72
2022/12/13 09:44:10;;;;;;;14.70;7.65;;;2.50;97.60;;;;;;5041726;28;20048;-72
2022/12/13 09:46:39;;;;;;;13.55;7.60;;;2.50;97.10;;;;;;5036862;28;20032;-71
2022/12/13 09:49:20;;;;;;;11.85;7.20;;;2.40;96.30;;;;;;5038646;28;20549;-71
2022/12/13 09:51:53;;;;;;;14.93;7.70;;;2.50;96.60;;;;;;5050714;28;20668;-71
2022/12/13 09:54:21;;;;;;;14.77;7.72;;;2.40;96.60;;;;;;5051037;28;20036;-71
2022/12/13 09:56:49;;;;;;;16.35;7.70;;;2.50;96.40;;;;;;5055008;28;20072;-71
2022/12/13 09:59:34;;;;;;;14.90;7.57;;;2.70;97.10;;;;;;5058425;28;20032;-71
2022/12/13 10:02:27;;;;;;;12.30;7.05;;;2.70;95.30;;;;;;5058526;28;20040;-71
2022/12/13 10:05:13;;;;;;;13.73;7.35;;;2.70;93.30;;;;;;5056917;28;20025;-71
2022/12/13 10:07:39;;;;;;;15.00;8.15;;;2.80;96.50;;;;;;5048121;28;20029;-71
2022/12/13 10:10:06;;;;;;;14.93;7.55;;;3.00;94.00;;;;;;5048185;28;20397;-71
2022/12/13 10:12:34;;;;;;;14.93;7.53;;;3.30;95.00;;;;;;5030830;28;21396;-71
2022/12/13 10:15:01;;;;;;;13.15;7.35;;;3.50;93.50;;;;;;5058870;28;20383;-71
2022/12/13 10:17:33;;;;;;;12.98;7.18;;;3.70;92.70;;;;;;5048644;28;20027;-71
2022/12/13 10:19:59;;;;;;;14.00;7.82;;;4.00;92.20;;;;;;5047752;28;20438;-71
2022/12/13 10:22:25;;;;;;;13.82;7.32;;;4.10;91.10;;;;;;5051682;28;20435;-71
2022/12/13 10:24:51;;;;;;;12.60;6.55;;;4.10;90.20;;;;;;5052065;28;20036;-71
2022/12/13 10:27:28;;;;;;;14.60;7.80;;;4.10;91.20;;;;;;5055558;28;20029;-71
2022/12/13 10:30:04;;;;;;;13.98;7.90;;;4.20;90.90;;;;;;5058884;28;20048;-72
2022/12/13 10:32:34;;;;;;;14.40;7.88;;;4.10;91.90;;;;;;5055407;28;20086;-71
2022/12/13 10:35:10;;;;;;;17.02;7.90;;;4.10;91.00;;;;;;5039145;28;20466;-71
2022/12/13 10:37:36;;;;;;;16.02;7.45;;;3.90;92.30;;;;;;5046110;28;20037;-70
2022/12/13 10:40:03;;;;;;;12.95;7.50;;;4.00;92.10;;;;;;5057096;28;20023;-71
2022/12/13 10:42:28;;;;;;;15.30;7.78;;;4.10;92.40;;;;;;5056340;28;20040;-71
2022/12/13 10:45:15;;;;;;;15.45;7.70;;;4.20;92.50;;;;;;5056891;28;20369;-71
2022/12/13 10:47:43;;;;;;;15.38;7.68;;;4.10;93.90;;;;;;5054041;28;20400;-71
2022/12/13 10:50:25;;;;;;;14.10;8.15;;;3.90;91.30;;;;;;5056769;28;20029;-70
2022/12/13 10:52:51;;;;;;;16.40;7.53;;;3.70;92.50;;;;;;5056924;28;20085;-71
2022/12/13 10:55:34;;;;;;;17.23;8.60;;;3.70;91.60;;;;;;5050717;28;20087;-71
2022/12/13 10:58:05;;;;;;;16.42;8.18;;;3.80;93.70;;;;;;5045745;28;20569;-70
2022/12/13 11:00:34;;;;;;;;;;;3.80;94.70;;;;;;5050464;28;20036;-71
2022/12/13 11:03:00;;;;;;;16.83;8.43;;;3.80;93.80;;;;;;5045440;28;19978;-72
2022/12/13 11:05:29;;;;;;;15.05;7.05;;;3.80;93.60;;;;;;5058504;28;20249;-70
2022/12/13 11:08:11;;;;;;;13.98;7.95;;;3.70;95.40;;;;;;5056061;28;20032;-71
2022/12/13 11:10:37;;;;;;;12.23;6.90;;;3.80;95.50;;;;;;5047817;28;20512;-70
2022/12/13 11:13:05;;;;;;;14.32;7.75;;;3.80;93.10;;;;;;5047183;28;20024;-71
2022/12/13 11:15:33;;;;;;;16.25;8.40;;;3.60;94.10;;;;;;5057505;28;20035;-71
2022/12/13 11:18:03;;;;;;;16.80;8.40;;;3.70;95.00;;;;;;5050773;28;20028;-71
2022/12/13 11:20:37;;;;;;;16.73;7.57;;;3.80;95.40;;;;;;5055539;28;20040;-71
2022/12/13 11:23:33;;;;;;;16.02;8.05;;;3.80;94.60;;;;;;5056542;28;20033;-71
2022/12/13 11:26:06;;;;;;;15.98;8.10;;;3.60;95.10;;;;;;5045362;28;20031;-71
2022/12/13 11:28:53;;;;;;;13.25;7.95;;;3.60;96.30;;;;;;5051482;28;20028;-71
2022/12/13 11:31:53;;;;;;;12.77;8.15;;;3.60;96.30;;;;;;5048790;28;20127;-70
2022/12/13 11:35:01;;;;;;;14.40;8.80;;;3.50;96.70;;;;;;4704288;28;10000429;-71
2022/12/13 11:37:47;;;;;;;13.82;7.43;;;3.20;97.00;;;;;;5055473;28;20299;-71
2022/12/13 11:40:21;;;;;;;17.10;9.10;;;3.20;98.20;;;;;;5056333;28;20078;-70
2022/12/13 11:42:56;;;;;;;14.30;8.52;;;3.40;98.70;;;;;;5045540;28;20034;-71
2022/12/13 11:45:26;;;;;;;17.27;8.63;;;3.50;97.10;;;;;;5045771;28;20950;-71
2022/12/13 11:48:07;;;;;;;19.52;8.60;;;3.60;96.00;;;;;;5048980;28;20032;-71
2022/12/13 11:50:40;;;;;;;12.57;8.23;;;3.60;95.60;;;;;;5043648;28;20044;-71
2022/12/13 11:53:14;;;;;;;14.85;7.88;;;4.00;96.10;;;;;;5047079;28;20327;-70
2022/12/13 11:55:50;;;;;;;15.63;8.45;;;4.20;93.10;;;;;;5049555;28;20078;-71
2022/12/13 11:58:18;;;;;;;15.48;8.18;;;4.60;93.40;;;;;;5051497;28;20055;-71
2022/12/13 12:01:19;;;;;;;16.15;7.93;;;4.80;91.80;;;;;;5052320;28;20968;-70
2022/12/13 12:04:11;;;;;;;18.05;7.72;;;5.20;90.30;;;;;;5047612;28;20044;-70
2022/12/13 12:06:55;;;;;;;16.35;8.35;;;5.40;86.60;;;;;;5036899;28;20453;-72
2022/12/13 12:09:22;;;;;;;13.80;7.97;;;5.60;86.40;;;;;;5057757;28;20515;-70
2022/12/13 12:11:59;;;;;;;13.95;7.60;;;5.80;79.30;;;;;;5057372;28;20036;-71
2022/12/13 12:14:47;;;;;;;11.75;7.00;;;5.80;80.60;;;;;;5049785;28;20028;-71
2022/12/13 12:17:15;;;;;;;15.18;8.30;;;5.90;82.50;;;;;;5049937;28;20058;-71
2022/12/13 12:19:45;;;;;;;16.70;8.68;;;5.70;81.30;;;;;;5055336;28;20195;-71
2022/12/13 12:22:29;;;;;;;15.68;8.20;;;5.80;83.90;;;;;;5041831;28;20143;-71
2022/12/13 12:25:36;;;;;;;14.32;7.63;;;5.70;84.00;;;;;;5052968;28;20028;-71
2022/12/13 12:28:21;;;;;;;16.88;8.00;;;5.60;83.90;;;;;;5019620;28;20189;-71
2022/12/13 12:31:12;;;;;;;16.35;8.05;;;5.40;85.40;;;;;;5056250;28;20032;-71
2022/12/13 12:33:41;;;;;;;;;;;4.90;84.90;;;;;;5039728;28;20218;-71
2022/12/13 12:36:49;;;;;;;16.08;7.68;;;4.70;90.20;;;;;;5053720;28;20360;-71
2022/12/13 12:39:24;;;;;;;14.25;8.07;;;4.60;90.70;;;;;;4994135;28;20530;-71
2022/12/13 12:42:17;;;;;;;14.98;8.00;;;4.40;89.50;;;;;;5054211;28;20036;-71
2022/12/13 12:44:52;;;;;;;18.23;8.63;;;4.40;92.80;;;;;;5050450;28;20034;-71
2022/12/13 12:47:39;;;;;;;16.67;8.73;;;4.20;91.10;;;;;;5052465;28;20113;-70
2022/12/13 12:50:32;;;;;;;16.30;8.20;;;4.30;92.50;;;;;;5051872;28;20032;-73
2022/12/13 12:53:06;;;;;;;15.07;8.77;;;4.10;92.70;;;;;;5027958;28;20020;-72
2022/12/13 12:55:54;;;;;;;19.05;8.80;;;4.20;94.70;;;;;;5050759;28;20102;-70
2022/12/13 12:58:29;;;;;;;16.27;8.15;;;4.30;94.10;;;;;;5047905;28;20025;-73
2022/12/13 13:01:24;;;;;;;15.25;8.23;;;4.20;92.80;;;;;;5048139;28;20089;-72